x

Gulf Of Maine - 78 Nm East Of Portsmouth, Nh (44005) Wave Buoy

11:50 - Mon 15th Sep 2014 All times are EDT. -4 hours from GMT.

  • Sig Wave height 1.3ft
  • Peak Period 13s
  • Average Period 7s
  • Wind
    4mph
  • Sea Temp 63°f
  • Aire Temp 59°f
  • Sea Pressure 1019.3mb
  • Gulf Of Maine - 78 Nm East Of Portsmouth, Nh
  • Gulf Of Maine - 78 Nm East Of Portsmouth, Nh

More Historic Weather Station data

Upgrade to MSW Pro to gain access to the past 30 days of data for over 8000 Wavebouys and Weather Stations around the globe.

Join Pro

Comparision Forecast

View Surf forecast
   
lun 09/15 11:50 1.3ft 13s 7s 4
mph
1019.3mb 63f 59f
10:50 1.3ft 7s 7s 4 7 mph 1019.8mb 63f 59f
9:50 1.3ft 8s 7s 4 7 mph 1020.1mb 63f 58f
8:50 1.3ft 8s 7s 4
mph
1020.3mb 63f 58f
7:50 1.3ft 8s 7s 4 7 mph 1020mb 64f 58f
6:50 1.3ft 8s 5s 4 7 mph 1020mb 64f 57f
5:50 1.3ft 8s 5s 4 7 mph 1020.1mb 64f 57f
4:50 1.3ft 13s 5s 7 11 mph 1020.1mb 64f 57f
3:50 1.3ft 9s 5s 9 13 mph 1020.6mb 64f 55f
2:50  -   -   -  7 11 mph 1020.7mb 64f 54f
1:50 1.6ft 7s 5s 4 9 mph 1021.2mb 64f 54f
12:50 1.6ft 13s 5s 7 11 mph 1021.8mb 64f 53f
11:50 1.6ft 7s 5s 11 13 mph 1022.1mb 64f 53f
10:50 1.6ft 7s 5s 7 11 mph 1022.8mb 64f 53f
9:50 1.6ft 7s 5s 7
mph
1023mb 63f 54f
8:50 1.6ft 7s 4s 7 9 mph 1023mb 63f 54f
7:50 2ft 8s 5s 9 11 mph 1023.1mb 63f 54f
6:50 2ft 4s 4s 7 9 mph 1023.1mb 63f 55f
5:50 2ft 4s 4s 7 9 mph 1022.8mb 63f 55f
4:50 2.5ft 4s 4s 9 11 mph 1022.5mb 63f 54f
3:50 2.5ft 4s 4s 11 13 mph 1022.2mb 63f 54f
2:50 3ft 4s 4s 13 18 mph 1021.9mb 64f 54f
1:50 3ft 4s 4s 13 16 mph 1022.1mb 64f 55f
12:50 2.5ft 4s 4s 18 20 mph 1022.1mb 64f 55f
dom 09/14 11:50 2.5ft 3s 4s 18 20 mph 1022mb 64f 56f
10:50 2.5ft 3s 4s 20 22 mph 1022.3mb 64f 56f
9:50 2ft 8s 4s 18 20 mph 1022.1mb 64f 59f
8:50 2ft 7s 4s 16 18 mph 1022.2mb 64f 60f
7:50 2ft 7s 4s 13 16 mph 1022mb 64f 60f
6:50 2.5ft 6s 4s 13 16 mph 1021.4mb 64f 59f
5:50 2.5ft 4s 4s 11 13 mph 1021.5mb 63f 59f
4:50  -   -   -  13
mph
- - 58f
3:50  -   -   -  13 18 mph 1020.8mb 64f 58f
2:50 3.5ft 5s 4s 18 20 mph 1020.3mb 64f 57f
1:50 3.5ft 5s 4s 18 22 mph 1020.8mb 64f 55f
12:50 4ft 5s 4s 18 20 mph 1021.1mb 64f 55f
11:50 4.5ft 5s 4s 22 27 mph 1020.6mb 64f 54f
10:50 4.5ft 5s 4s 22 27 mph 1021.1mb 64f 55f
9:50 4.5ft 5s 4s 22 27 mph 1021.1mb 64f 55f
8:50 4.5ft 4s 4s 25 29 mph 1020.6mb 65f 56f
7:50 4.5ft 4s 4s 27 31 mph 1020.1mb 65f 57f
6:50 4ft 4s 4s 25 29 mph 1019.2mb 65f 58f
4:50  -   -   -  20 25 mph 1017.7mb 65f 60f
3:50 3ft 6s 4s 18 22 mph 1017.3mb 65f 62f
2:50 3.5ft 6s 5s 16 20 mph 1017.2mb 65f 64f
1:50 4ft 5s 5s 4 9 mph 1017.2mb 65f 64f
12:50 4.5ft 6s 4s 4 7 mph 1017.6mb 65f 64f
sáb 09/13 11:50 3.5ft 5s 4s 9 11 mph 1017.8mb 65f 63f
10:50 4ft 5s 4s 13 18 mph 1018.1mb 65f 63f
9:50 4ft 5s 4s 18 22 mph 1018.2mb 65f 63f
8:50 3.5ft 6s 5s 22 27 mph 1017.9mb 65f 63f
7:50 3.5ft 6s 5s 11 13 mph 1021.3mb 65f 63f
6:50 3.5ft 5s 4s 13 16 mph 1021.3mb 65f 63f
5:50 3.5ft 6s 4s 16 18 mph 1021mb 65f 63f
4:50 3.5ft 5s 4s 16 18 mph 1021.1mb 65f 62f
3:50 3.5ft 5s 4s 13 18 mph 1021.5mb 65f 62f
2:50 3.5ft 5s 4s 16 18 mph 1021.9mb 65f 61f
1:50 3.5ft 5s 4s 16 20 mph 1022.6mb 65f 60f
12:50 3.5ft 6s 4s 18 20 mph 1023.3mb 65f 60f
11:50 4ft 5s 5s 18 22 mph 1024.2mb 64f 59f
10:50 4ft 6s 5s 18 22 mph 1024.6mb 64f 59f
9:50 4ft 5s 5s 18 20 mph 1025.1mb 64f 59f
8:50 4.5ft 6s 5s 16 20 mph 1025.6mb 64f 58f
7:50 4.5ft 5s 5s 20 22 mph 1025.2mb 64f 57f
6:50 4.5ft 5s 4s 22 25 mph 1024.6mb 64f 58f
5:50 4.5ft 5s 4s 22 27 mph 1023.9mb 64f 59f
4:50 3.5ft 5s 4s 25 27 mph 1023.3mb 64f 58f
3:50 3.5ft 4s 4s 22 27 mph 1023.5mb 64f 58f
2:50 3.5ft 5s 4s 22 27 mph 1023.5mb 64f 58f
1:50 3.5ft 4s 4s 20 25 mph 1023.3mb 64f 59f
12:50 3ft 3s 4s 22 27 mph 1023.1mb 64f 60f
vie 09/12 11:50 2.5ft 3s 3s 22 27 mph 1022.7mb 65f 60f
10:50 2ft 7s 4s 20 25 mph 1022.5mb 65f 61f
9:50 2ft 9s 6s 11 13 mph 1022.1mb 65f 62f
8:50 2ft 8s 5s 7 11 mph 1021.6mb 66f 62f
7:50 2ft 8s 5s 9 11 mph 1020.8mb 66f 62f
6:50 2ft 8s 4s 9 11 mph 1019.9mb 66f 63f
5:50 2ft 8s 4s 13 16 mph 1019.4mb 66f 62f
4:50  -   -   -  9 13 mph 1019mb 66f 61f
3:50 2.5ft 4s 4s 11 16 mph 1018.7mb 66f 60f
2:50 3.5ft 4s 4s 11 16 mph 1018.1mb 66f 59f
1:50 3ft 4s 4s 11 16 mph 1017.9mb 65f 58f
12:50 3ft 5s 4s 11 16 mph 1017.7mb 65f 58f
11:50 3.5ft 4s 4s 13 16 mph 1017.6mb 65f 58f
10:50 3.5ft 5s 4s 16 20 mph 1017.8mb 65f 58f
9:50 3.5ft 4s 4s 20 22 mph 1017.1mb 65f 58f
8:50 3.5ft 8s 4s 20 25 mph 1016.5mb 65f 60f
7:50 3.5ft 8s 5s 16 18 mph 1015.8mb 65f 60f
6:50 3ft 7s 4s 16 20 mph 1014.8mb 65f 61f
5:50 3ft 8s 4s 18 20 mph 1013.6mb 66f 62f